createdAt,value
2022-12-11T00:00:09.245Z,-0.19
2022-12-11T00:05:30.156Z,-0.13
2022-12-11T00:10:51.256Z,-0.11
2022-12-11T00:16:12.538Z,-0.15
2022-12-11T00:21:34.015Z,-0.11
2022-12-11T00:26:54.383Z,-0.07
2022-12-11T00:32:15.138Z,-0.08
2022-12-11T00:37:35.945Z,-0.05
2022-12-11T00:42:56.799Z,-0.09
2022-12-11T00:48:18.651Z,-0.13
2022-12-11T00:53:39.377Z,-0.14
2022-12-11T00:59:00.159Z,-0.13
2022-12-11T01:04:20.728Z,-0.20
2022-12-11T01:10:00.281Z,-0.18
2022-12-11T01:15:23.065Z,-0.16
2022-12-11T01:20:43.688Z,-0.10
2022-12-11T01:26:13.679Z,-0.11
2022-12-11T01:31:34.575Z,-0.15
2022-12-11T01:36:55.287Z,-0.18
2022-12-11T01:42:18.917Z,-0.26
2022-12-11T01:47:39.431Z,-0.26
2022-12-11T01:53:00.046Z,-0.29
2022-12-11T01:58:24.635Z,-0.32
2022-12-11T02:03:45.033Z,-0.33
2022-12-11T02:09:10.471Z,-0.38
2022-12-11T02:14:41.401Z,-0.45
2022-12-11T02:20:21.175Z,-0.42
2022-12-11T02:25:48.023Z,-0.47
2022-12-11T02:31:23.258Z,-0.50
2022-12-11T02:36:49.233Z,-0.49
2022-12-11T02:42:11.953Z,-0.55
2022-12-11T02:47:33.922Z,-0.47
2022-12-11T02:52:56.977Z,-0.45
2022-12-11T02:58:28.218Z,-0.47
2022-12-11T03:03:49.290Z,-0.50
2022-12-11T03:09:10.362Z,-0.50
2022-12-11T03:14:31.322Z,-0.47
2022-12-11T03:20:12.002Z,-0.52
2022-12-11T03:25:44.392Z,-0.53
2022-12-11T03:31:13.328Z,-0.58
2022-12-11T03:36:38.315Z,-0.60
2022-12-11T03:42:02.893Z,-0.64
2022-12-11T03:47:27.037Z,-0.52
2022-12-11T03:52:49.017Z,-0.60
2022-12-11T03:58:09.655Z,-0.48
2022-12-11T04:03:31.044Z,-0.49
2022-12-11T04:08:52.152Z,-0.55
2022-12-11T04:14:33.210Z,-0.60
2022-12-11T04:20:12.410Z,-0.63
2022-12-11T04:25:32.991Z,-0.74
2022-12-11T04:30:53.434Z,-0.72
2022-12-11T04:36:14.993Z,-0.74
2022-12-11T04:41:37.094Z,-0.86
2022-12-11T04:46:57.921Z,-0.87
2022-12-11T04:52:18.252Z,-0.85
2022-12-11T04:57:39.434Z,-0.85
2022-12-11T05:02:59.967Z,-0.88
2022-12-11T05:08:21.588Z,-0.88
2022-12-11T05:13:43.093Z,-0.91
2022-12-11T05:19:03.970Z,-0.96
2022-12-11T05:24:24.812Z,-0.94
2022-12-11T05:29:45.623Z,-1.01
2022-12-11T05:35:06.510Z,-1.03
2022-12-11T05:40:27.550Z,-1.11
2022-12-11T05:45:48.374Z,-1.13
2022-12-11T05:51:11.065Z,-1.19
2022-12-11T05:56:34.447Z,-1.19
2022-12-11T06:01:55.332Z,-1.22
2022-12-11T06:07:15.671Z,-1.24
2022-12-11T06:12:36.543Z,-1.26
2022-12-11T06:17:56.960Z,-1.37
2022-12-11T06:23:17.523Z,-1.36
2022-12-11T06:28:38.394Z,-1.31
2022-12-11T06:33:59.921Z,-1.32
2022-12-11T06:39:20.478Z,-1.25
2022-12-11T06:44:41.310Z,-1.29
2022-12-11T06:50:02.358Z,-1.24
2022-12-11T06:55:23.417Z,-1.29
2022-12-11T07:00:43.966Z,-1.27
2022-12-11T07:06:05.407Z,-1.33
2022-12-11T07:11:25.827Z,-1.44
2022-12-11T07:16:46.478Z,-1.67
2022-12-11T07:22:07.423Z,-1.88
2022-12-11T07:27:29.119Z,-2.03
2022-12-11T07:32:49.765Z,-2.04
2022-12-11T07:38:10.402Z,-2.11
2022-12-11T07:43:32.192Z,-2.19
2022-12-11T07:48:53.155Z,-2.30
2022-12-11T07:54:16.853Z,-2.43
2022-12-11T07:59:37.613Z,-2.52
2022-12-11T08:04:58.133Z,-2.59
2022-12-11T08:10:19.746Z,-2.61
2022-12-11T08:15:40.281Z,-2.55
2022-12-11T08:21:09.450Z,-2.56
2022-12-11T08:26:34.069Z,-2.56
2022-12-11T08:31:55.370Z,-2.44
2022-12-11T08:37:16.150Z,-2.35
2022-12-11T08:42:36.870Z,-2.19
2022-12-11T08:47:59.061Z,-2.12
2022-12-11T08:53:19.977Z,-1.97
2022-12-11T08:58:41.033Z,-1.90
2022-12-11T09:04:02.195Z,-1.98
2022-12-11T09:09:22.795Z,-1.96
2022-12-11T09:14:43.537Z,-1.83
2022-12-11T09:20:05.519Z,-1.63
2022-12-11T09:25:26.314Z,-1.60
2022-12-11T09:30:47.137Z,-1.56
2022-12-11T09:36:08.918Z,-1.46
2022-12-11T09:41:59.513Z,-1.21
2022-12-11T09:47:27.714Z,-1.19
2022-12-11T09:53:10.122Z,-1.16
2022-12-11T09:58:52.238Z,-1.13
2022-12-11T10:04:38.154Z,-1.07
2022-12-11T10:10:09.119Z,-1.02
2022-12-11T10:15:43.840Z,-1.03
2022-12-11T10:21:04.745Z,-0.98
2022-12-11T10:26:24.997Z,-1.01
2022-12-11T10:31:57.816Z,-0.99
2022-12-11T10:37:18.411Z,-0.84
2022-12-11T10:42:45.434Z,-0.73
2022-12-11T10:48:10.974Z,-0.70
2022-12-11T10:53:33.392Z,-0.68
2022-12-11T10:58:56.502Z,-0.60
2022-12-11T11:04:37.573Z,-0.57
2022-12-11T11:10:10.109Z,-0.55
2022-12-11T11:15:31.298Z,-0.41
2022-12-11T11:20:52.125Z,-0.32
2022-12-11T11:26:13.548Z,-0.30
2022-12-11T11:31:35.397Z,-0.30
2022-12-11T11:36:58.663Z,-0.43
2022-12-11T11:42:27.746Z,-0.47
2022-12-11T11:47:58.755Z,-0.45
2022-12-11T11:53:37.426Z,-0.22
2022-12-11T11:59:18.900Z,0.65
2022-12-11T12:04:39.787Z,0.98
2022-12-11T12:10:16.269Z,0.95
2022-12-11T12:15:43.957Z,0.82
2022-12-11T12:21:24.492Z,0.67
2022-12-11T12:27:29.163Z,0.63
2022-12-11T12:33:15.017Z,0.48
2022-12-11T12:38:55.990Z,0.30
2022-12-11T12:44:23.633Z,0.24
2022-12-11T12:49:50.225Z,0.13
2022-12-11T12:55:14.102Z,-0.03
2022-12-11T13:00:41.498Z,-0.05
2022-12-11T13:06:13.532Z,-0.14
2022-12-11T13:11:36.308Z,-0.13
2022-12-11T13:17:21.470Z,0.03
2022-12-11T13:23:07.573Z,0.14
2022-12-11T13:28:32.970Z,0.07
2022-12-11T13:33:57.065Z,-0.02
2022-12-11T13:39:22.469Z,-0.01
2022-12-11T13:44:47.972Z,-0.07
2022-12-11T13:50:23.939Z,-0.05
2022-12-11T13:55:45.204Z,-0.03
2022-12-11T14:01:11.179Z,-0.09
2022-12-11T14:06:34.501Z,-0.13
2022-12-11T14:11:57.619Z,-0.08
2022-12-11T14:17:28.157Z,-0.07
2022-12-11T14:22:48.844Z,-0.06
2022-12-11T14:28:18.260Z,-0.09
2022-12-11T14:33:46.954Z,-0.04
2022-12-11T14:39:17.408Z,0.02
2022-12-11T14:44:51.902Z,0.08
2022-12-11T14:50:33.993Z,0.14
2022-12-11T14:55:58.128Z,0.22
2022-12-11T15:01:28.722Z,0.11
2022-12-11T15:06:51.845Z,0.03
2022-12-11T15:12:16.608Z,0.02
2022-12-11T15:17:37.462Z,0.01
2022-12-11T15:23:01.460Z,-0.07
2022-12-11T15:28:34.734Z,-0.09
2022-12-11T15:33:55.370Z,-0.10
2022-12-11T15:39:16.170Z,-0.12
2022-12-11T15:44:36.639Z,-0.18
2022-12-11T15:50:07.326Z,-0.09
2022-12-11T15:55:34.842Z,-0.11
2022-12-11T16:00:55.909Z,-0.08
2022-12-11T16:06:16.524Z,-0.03
2022-12-11T16:11:37.158Z,-0.02
2022-12-11T16:16:57.859Z,0.07
2022-12-11T16:22:20.958Z,0.11
2022-12-11T16:27:41.731Z,0.06
2022-12-11T16:33:10.196Z,0.03
2022-12-11T16:38:32.691Z,0.03
2022-12-11T16:43:54.058Z,0.05
2022-12-11T16:49:14.583Z,0.02
2022-12-11T16:54:35.501Z,-0.03
2022-12-11T16:59:55.959Z,-0.03
2022-12-11T17:05:16.807Z,-0.04
2022-12-11T17:10:42.090Z,-0.03
2022-12-11T17:16:16.564Z,-0.04
2022-12-11T17:21:37.049Z,-0.05
2022-12-11T17:26:57.574Z,-0.10
2022-12-11T17:32:18.458Z,-0.12
2022-12-11T17:37:38.950Z,-0.21
2022-12-11T17:42:59.534Z,-0.25
2022-12-11T17:48:24.296Z,-0.26
2022-12-11T17:53:44.819Z,-0.24
2022-12-11T17:59:05.339Z,-0.25
2022-12-11T18:04:26.152Z,-0.21
2022-12-11T18:09:46.791Z,-0.22
2022-12-11T18:15:08.053Z,-0.24
2022-12-11T18:20:31.420Z,-0.21
2022-12-11T18:25:52.551Z,-0.21
2022-12-11T18:31:13.584Z,-0.29
2022-12-11T18:36:34.722Z,-0.36
2022-12-11T18:42:30.728Z,-0.41
2022-12-11T18:47:37.242Z,-0.45
2022-12-11T18:52:58.007Z,-0.45
2022-12-11T18:58:19.340Z,-0.48
2022-12-11T19:03:40.299Z,-0.52
2022-12-11T19:09:01.444Z,-0.54
2022-12-11T19:14:22.332Z,-0.52
2022-12-11T19:19:46.018Z,-0.59
2022-12-11T19:25:07.204Z,-0.60
2022-12-11T19:30:28.076Z,-0.58
2022-12-11T19:35:48.807Z,-0.59
2022-12-11T19:41:15.349Z,-0.66
2022-12-11T19:46:35.980Z,-0.76
2022-12-11T19:51:56.693Z,-0.91
2022-12-11T19:57:17.330Z,-0.96
2022-12-11T20:02:37.639Z,-1.06
2022-12-11T20:08:27.355Z,-1.16
2022-12-11T20:13:45.583Z,-1.25
2022-12-11T20:19:06.176Z,-1.34
2022-12-11T20:24:26.634Z,-1.35
2022-12-11T20:29:47.007Z,-1.37
2022-12-11T20:35:08.155Z,-1.47
2022-12-11T20:40:29.074Z,-1.47
2022-12-11T20:45:50.127Z,-1.57
2022-12-11T20:51:12.682Z,-1.64
2022-12-11T20:56:33.486Z,-1.59
2022-12-11T21:01:54.538Z,-1.74
2022-12-11T21:07:14.931Z,-1.82
2022-12-11T21:12:38.243Z,-1.94
2022-12-11T21:17:59.143Z,-2.00
2022-12-11T21:23:19.562Z,-2.01
2022-12-11T21:28:40.073Z,-2.09
2022-12-11T21:34:00.516Z,-2.16
2022-12-11T21:39:21.201Z,-2.18
2022-12-11T21:45:37.676Z,-2.15
2022-12-11T21:50:23.418Z,-2.25
2022-12-11T21:55:43.817Z,-2.15
2022-12-11T22:01:06.018Z,-2.20
2022-12-11T22:06:27.448Z,-2.20
2022-12-11T22:11:48.148Z,-2.20
2022-12-11T22:17:08.948Z,-2.19
2022-12-11T22:22:29.498Z,-2.13
2022-12-11T22:27:50.405Z,-2.14
2022-12-11T22:33:12.248Z,-2.10
2022-12-11T22:38:33.973Z,-2.10
2022-12-11T22:43:55.200Z,-2.11
2022-12-11T22:49:15.909Z,-1.97
2022-12-11T22:54:40.927Z,-1.94
2022-12-11T23:00:02.559Z,-1.82
2022-12-11T23:05:23.101Z,-1.75
2022-12-11T23:10:44.065Z,-1.65
2022-12-11T23:16:04.727Z,-1.60
2022-12-11T23:21:27.597Z,-1.58
2022-12-11T23:26:48.287Z,-1.54
2022-12-11T23:32:08.912Z,-1.44
2022-12-11T23:37:29.658Z,-1.48
2022-12-11T23:42:49.914Z,-1.51
2022-12-11T23:48:13.005Z,-1.56
2022-12-11T23:53:33.865Z,-1.58
2022-12-11T23:58:54.626Z,-1.58
